createdAt,value
2023-03-07T00:02:34.063Z,26.83
2023-03-07T00:05:10.147Z,27.58
2023-03-07T00:07:47.070Z,30.52
2023-03-07T00:10:24.220Z,32.70
2023-03-07T00:12:59.542Z,37.70
2023-03-07T00:15:35.719Z,37.90
2023-03-07T00:18:15.736Z,39.97
2023-03-07T00:20:49.657Z,29.95
2023-03-07T00:23:25.792Z,30.70
2023-03-07T00:26:03.404Z,32.40
2023-03-07T00:28:39.454Z,40.35
2023-03-07T00:31:15.785Z,38.95
2023-03-07T00:33:57.115Z,37.55
2023-03-07T00:36:36.640Z,39.77
2023-03-07T00:39:10.537Z,36.03
2023-03-07T00:41:45.567Z,34.40
2023-03-07T00:44:21.131Z,35.17
2023-03-07T00:46:56.318Z,39.95
2023-03-07T00:49:35.546Z,29.08
2023-03-07T00:52:12.218Z,31.25
2023-03-07T00:57:23.264Z,27.35
2023-03-07T00:59:59.433Z,25.95
2023-03-07T01:02:35.356Z,26.88
2023-03-07T01:05:17.410Z,25.08
2023-03-07T01:07:52.420Z,27.40
2023-03-07T01:10:29.715Z,30.15
2023-03-07T01:13:05.725Z,34.88
2023-03-07T01:18:14.944Z,32.50
2023-03-07T01:20:55.630Z,34.30
2023-03-07T01:23:31.777Z,32.15
2023-03-07T01:26:07.044Z,37.05
2023-03-07T01:28:44.171Z,33.67
2023-03-07T01:31:19.890Z,40.05
2023-03-07T01:33:56.205Z,34.63
2023-03-07T01:36:37.372Z,37.38
2023-03-07T01:39:17.554Z,32.72
2023-03-07T01:42:21.923Z,34.95
2023-03-07T01:45:05.406Z,32.60
2023-03-07T01:48:05.986Z,32.47
2023-03-07T01:50:43.842Z,31.30
2023-03-07T01:53:24.034Z,33.60
2023-03-07T01:56:01.746Z,30.70
2023-03-07T01:58:37.532Z,32.35
2023-03-07T02:01:14.103Z,33.85
2023-03-07T02:03:52.786Z,30.73
2023-03-07T02:06:27.938Z,31.30
2023-03-07T02:09:05.510Z,31.02
2023-03-07T02:11:41.099Z,32.05
2023-03-07T02:14:18.410Z,29.08
2023-03-07T02:16:49.475Z,35.58
2023-03-07T02:19:34.287Z,35.67
2023-03-07T02:22:12.557Z,37.45
2023-03-07T02:24:52.264Z,36.15
2023-03-07T02:27:31.444Z,36.90
2023-03-07T02:30:13.926Z,36.72
2023-03-07T02:32:49.650Z,36.20
2023-03-07T02:35:27.699Z,38.92
2023-03-07T02:38:06.695Z,39.93
2023-03-07T02:40:42.114Z,39.65
2023-03-07T02:43:22.981Z,36.88
2023-03-07T02:45:58.994Z,35.80
2023-03-07T02:48:35.797Z,39.67
2023-03-07T02:51:12.342Z,36.97
2023-03-07T02:53:53.564Z,36.00
2023-03-07T02:56:28.479Z,41.25
2023-03-07T02:59:07.941Z,40.03
2023-03-07T03:01:43.600Z,31.17
2023-03-07T03:04:20.335Z,36.85
2023-03-07T03:06:55.427Z,38.05
2023-03-07T03:09:33.837Z,39.73
2023-03-07T03:12:12.604Z,41.17
2023-03-07T03:14:47.738Z,39.45
2023-03-07T03:17:28.170Z,40.17
2023-03-07T03:20:05.738Z,40.20
2023-03-07T03:22:40.712Z,41.40
2023-03-07T03:25:19.001Z,44.65
2023-03-07T03:27:54.266Z,46.08
2023-03-07T03:30:32.576Z,45.60
2023-03-07T03:33:14.118Z,42.75
2023-03-07T03:35:48.829Z,43.78
2023-03-07T03:38:25.256Z,45.70
2023-03-07T03:41:01.174Z,42.78
2023-03-07T03:43:38.199Z,44.17
2023-03-07T03:46:15.327Z,40.92
2023-03-07T03:48:58.128Z,40.63
2023-03-07T03:51:36.182Z,44.03
2023-03-07T03:54:13.138Z,44.20
2023-03-07T03:56:47.672Z,47.47
2023-03-07T03:59:23.056Z,47.80
2023-03-07T04:01:59.595Z,48.05
2023-03-07T04:04:38.853Z,57.28
2023-03-07T04:07:18.411Z,73.28
2023-03-07T04:09:55.972Z,66.45
2023-03-07T04:12:32.393Z,57.65
2023-03-07T04:15:09.620Z,65.10
2023-03-07T04:17:47.685Z,53.45
2023-03-07T04:20:26.081Z,54.25
2023-03-07T04:23:03.761Z,55.75
2023-03-07T04:25:41.207Z,55.75
2023-03-07T04:28:15.540Z,55.42
2023-03-07T04:30:52.732Z,50.83
2023-03-07T04:33:30.612Z,48.17
2023-03-07T04:36:05.139Z,52.80
2023-03-07T04:38:43.246Z,53.25
2023-03-07T04:41:20.518Z,52.83
2023-03-07T04:44:00.712Z,53.80
2023-03-07T04:46:36.578Z,51.57
2023-03-07T04:49:14.090Z,51.45
2023-03-07T04:51:48.842Z,48.85
2023-03-07T04:57:04.404Z,44.50
2023-03-07T04:59:40.414Z,47.22
2023-03-07T05:02:18.697Z,50.58
2023-03-07T05:04:54.330Z,48.00
2023-03-07T05:07:31.206Z,49.28
2023-03-07T05:10:14.474Z,45.55
2023-03-07T05:12:48.670Z,45.30
2023-03-07T05:15:23.494Z,47.72
2023-03-07T05:17:58.823Z,47.63
2023-03-07T05:20:36.474Z,46.00
2023-03-07T05:23:11.728Z,47.03
2023-03-07T05:25:53.127Z,44.43
2023-03-07T05:28:30.442Z,43.90
2023-03-07T05:31:11.174Z,42.20
2023-03-07T05:33:45.574Z,42.05
2023-03-07T05:36:27.133Z,40.92
2023-03-07T05:42:27.829Z,39.42
2023-03-07T05:45:03.190Z,39.72
2023-03-07T05:47:39.181Z,38.35
2023-03-07T05:50:19.323Z,38.83
2023-03-07T05:52:55.784Z,37.95
2023-03-07T05:55:34.703Z,37.90
2023-03-07T05:58:15.264Z,35.75
2023-03-07T06:00:55.378Z,39.45
2023-03-07T06:03:36.265Z,33.93
2023-03-07T06:06:12.443Z,29.20
2023-03-07T06:08:51.091Z,25.27
2023-03-07T06:11:26.244Z,22.77
2023-03-07T06:14:05.104Z,25.10
2023-03-07T06:16:40.433Z,23.90
2023-03-07T06:19:16.125Z,24.45
2023-03-07T06:21:51.031Z,24.08
2023-03-07T06:24:29.853Z,23.45
2023-03-07T06:27:04.636Z,22.63
2023-03-07T06:29:48.418Z,23.95
2023-03-07T06:32:25.080Z,23.98
2023-03-07T06:35:03.356Z,23.53
2023-03-07T06:37:39.483Z,23.45
2023-03-07T06:42:53.754Z,24.30
2023-03-07T06:45:26.500Z,21.90
2023-03-07T06:48:05.077Z,23.10
2023-03-07T06:50:42.075Z,21.23
2023-03-07T06:53:17.136Z,21.58
2023-03-07T06:55:52.896Z,21.30
2023-03-07T06:58:28.620Z,20.63
2023-03-07T07:01:06.701Z,19.67
2023-03-07T07:03:49.220Z,21.83
2023-03-07T07:06:24.438Z,21.45
2023-03-07T07:09:00.591Z,22.85
2023-03-07T07:11:41.069Z,21.20
2023-03-07T07:14:20.105Z,19.95
2023-03-07T07:16:57.043Z,22.67
2023-03-07T07:19:37.692Z,21.38
2023-03-07T07:22:15.381Z,22.00
2023-03-07T07:24:52.009Z,20.88
2023-03-07T07:27:28.690Z,22.27
2023-03-07T07:30:12.183Z,22.85
2023-03-07T07:32:48.479Z,21.00
2023-03-07T07:38:04.287Z,23.33
2023-03-07T07:40:39.584Z,21.63
2023-03-07T07:43:17.504Z,20.50
2023-03-07T07:46:04.318Z,19.98
2023-03-07T07:48:45.497Z,19.63
2023-03-07T07:51:26.911Z,19.60
2023-03-07T07:54:02.646Z,19.85
2023-03-07T07:56:43.500Z,19.42
2023-03-07T07:59:17.682Z,19.97
2023-03-07T08:01:57.148Z,19.15
2023-03-07T08:04:35.771Z,19.73
2023-03-07T08:07:16.531Z,18.47
2023-03-07T08:09:55.526Z,20.05
2023-03-07T08:12:34.169Z,19.17
2023-03-07T08:15:12.680Z,18.73
2023-03-07T08:17:51.793Z,18.75
2023-03-07T08:20:32.573Z,19.20
2023-03-07T08:23:13.666Z,18.10
2023-03-07T08:25:50.500Z,15.90
2023-03-07T08:28:27.933Z,17.48
2023-03-07T08:31:11.370Z,15.43
2023-03-07T08:33:48.526Z,15.25
2023-03-07T08:36:25.039Z,15.93
2023-03-07T08:39:12.743Z,16.05
2023-03-07T08:41:58.846Z,16.95
2023-03-07T08:44:36.430Z,15.63
2023-03-07T08:47:16.327Z,14.20
2023-03-07T08:50:04.936Z,14.38
2023-03-07T08:52:42.371Z,13.95
2023-03-07T08:55:24.265Z,13.23
2023-03-07T08:58:05.531Z,13.93
2023-03-07T09:00:44.130Z,13.30
2023-03-07T09:03:24.589Z,13.27
2023-03-07T09:05:59.695Z,12.88
2023-03-07T09:08:36.565Z,13.35
2023-03-07T09:11:15.256Z,12.65
2023-03-07T09:13:53.397Z,13.40
2023-03-07T09:16:29.121Z,12.23
2023-03-07T09:19:06.409Z,13.77
2023-03-07T09:21:44.062Z,13.30
2023-03-07T09:24:26.995Z,12.57
2023-03-07T09:27:17.455Z,12.45
2023-03-07T09:29:56.716Z,12.25
2023-03-07T09:32:32.626Z,11.70
2023-03-07T09:35:13.219Z,12.32
2023-03-07T09:37:54.521Z,12.50
2023-03-07T09:40:29.236Z,12.18
2023-03-07T09:43:13.763Z,11.90
2023-03-07T09:46:02.884Z,11.75
2023-03-07T09:48:55.240Z,12.05
2023-03-07T09:51:30.700Z,12.50
2023-03-07T09:54:08.042Z,12.25
2023-03-07T09:56:46.171Z,11.32
2023-03-07T09:59:29.165Z,13.25
2023-03-07T10:02:04.406Z,12.73
2023-03-07T10:04:43.853Z,10.90
2023-03-07T10:07:21.043Z,13.40
2023-03-07T10:09:57.763Z,11.65
2023-03-07T10:12:47.025Z,10.15
2023-03-07T10:15:39.829Z,10.57
2023-03-07T10:18:37.801Z,11.18
2023-03-07T10:21:18.822Z,10.35
2023-03-07T10:23:52.853Z,10.23
2023-03-07T10:26:30.705Z,9.55
2023-03-07T10:29:12.222Z,10.45
2023-03-07T10:31:50.663Z,10.83
2023-03-07T10:34:30.664Z,10.35
2023-03-07T10:37:11.546Z,11.73
2023-03-07T10:39:48.065Z,10.38
2023-03-07T10:42:24.235Z,10.73
2023-03-07T10:45:03.856Z,10.18
2023-03-07T10:47:44.125Z,11.30
2023-03-07T10:50:37.303Z,10.43
2023-03-07T10:53:18.488Z,10.35
2023-03-07T10:55:54.158Z,9.00
2023-03-07T10:58:32.105Z,9.63
2023-03-07T11:01:18.344Z,8.95
2023-03-07T11:04:03.381Z,9.00
2023-03-07T11:06:41.455Z,9.38
2023-03-07T11:09:16.161Z,8.98
2023-03-07T11:11:55.915Z,9.20
2023-03-07T11:14:31.665Z,9.50
2023-03-07T11:17:18.457Z,8.90
2023-03-07T11:20:00.250Z,8.05
2023-03-07T11:22:36.864Z,8.10
2023-03-07T11:25:19.314Z,7.90
2023-03-07T11:30:32.502Z,7.90
2023-03-07T11:33:12.550Z,9.00
2023-03-07T11:36:00.658Z,9.63
2023-03-07T11:38:42.593Z,9.50
2023-03-07T11:41:20.496Z,8.10
2023-03-07T11:44:08.384Z,8.63
2023-03-07T11:46:51.897Z,8.40
2023-03-07T11:49:46.560Z,8.10
2023-03-07T11:52:31.670Z,7.60
2023-03-07T11:55:14.955Z,7.80
2023-03-07T11:57:56.077Z,8.00
2023-03-07T12:00:36.510Z,7.45
2023-03-07T12:03:25.360Z,8.15
2023-03-07T12:06:25.155Z,8.43
2023-03-07T12:09:17.007Z,7.20
2023-03-07T12:12:12.417Z,7.93
2023-03-07T12:14:47.011Z,7.50
2023-03-07T12:17:28.016Z,7.32
2023-03-07T12:20:02.076Z,7.60
2023-03-07T12:22:41.130Z,6.87
2023-03-07T12:25:25.378Z,6.30
2023-03-07T12:28:06.790Z,6.63
2023-03-07T12:30:53.225Z,6.45
2023-03-07T12:33:31.715Z,7.40
2023-03-07T12:36:08.279Z,6.70
2023-03-07T12:38:48.769Z,6.72
2023-03-07T12:41:42.262Z,7.27
2023-03-07T12:44:19.146Z,6.85
2023-03-07T12:46:57.514Z,6.43
2023-03-07T12:49:49.123Z,6.30
2023-03-07T12:52:23.984Z,6.18
2023-03-07T12:55:02.565Z,7.35
2023-03-07T12:57:44.015Z,7.85
2023-03-07T13:00:22.432Z,6.80
2023-03-07T13:03:04.575Z,6.87
2023-03-07T13:05:40.468Z,6.70
2023-03-07T13:08:27.939Z,7.57
2023-03-07T13:11:02.781Z,6.50
2023-03-07T13:14:02.890Z,5.90
2023-03-07T13:16:43.018Z,5.65
2023-03-07T13:19:35.322Z,6.47
2023-03-07T13:22:10.148Z,4.93
2023-03-07T13:24:45.172Z,5.40
2023-03-07T13:27:20.590Z,5.47
2023-03-07T13:30:25.187Z,4.90
2023-03-07T13:33:00.920Z,4.87
2023-03-07T13:35:59.850Z,5.80
2023-03-07T13:38:39.656Z,5.05
2023-03-07T13:41:15.718Z,5.55
2023-03-07T13:46:52.808Z,5.57
2023-03-07T13:49:44.777Z,5.25
2023-03-07T13:52:44.572Z,5.15
2023-03-07T13:55:42.352Z,5.27
2023-03-07T13:58:22.923Z,5.30
2023-03-07T14:01:01.224Z,5.77
2023-03-07T14:03:40.615Z,5.60
2023-03-07T14:06:19.905Z,5.45
2023-03-07T14:08:55.208Z,4.82
2023-03-07T14:11:34.896Z,5.43
2023-03-07T14:14:33.931Z,5.85
2023-03-07T14:17:36.875Z,5.43
2023-03-07T14:20:21.522Z,5.18
2023-03-07T14:23:07.398Z,4.95
2023-03-07T14:25:44.896Z,4.85
2023-03-07T14:28:53.363Z,4.80
2023-03-07T14:31:32.072Z,9.35
2023-03-07T14:34:19.641Z,5.38
2023-03-07T14:37:00.361Z,6.32
2023-03-07T14:39:40.857Z,5.82
2023-03-07T14:42:21.037Z,5.82
2023-03-07T14:45:02.130Z,5.13
2023-03-07T14:47:36.785Z,6.75
2023-03-07T14:50:18.976Z,5.90
2023-03-07T14:53:02.624Z,5.63
2023-03-07T14:55:40.047Z,5.78
2023-03-07T14:58:19.739Z,5.75
2023-03-07T15:01:02.966Z,6.45
2023-03-07T15:03:45.050Z,6.70
2023-03-07T15:06:22.902Z,7.10
2023-03-07T15:09:08.674Z,6.55
2023-03-07T15:11:44.478Z,6.65
2023-03-07T15:14:25.625Z,7.10
2023-03-07T15:17:02.187Z,6.70
2023-03-07T15:19:41.830Z,6.67
2023-03-07T15:22:23.263Z,6.70
2023-03-07T15:25:02.928Z,7.20
2023-03-07T15:27:36.971Z,6.47
2023-03-07T15:30:26.308Z,6.85
2023-03-07T15:33:37.021Z,6.80
2023-03-07T15:36:24.120Z,6.45
2023-03-07T15:39:17.056Z,6.40
2023-03-07T15:42:06.736Z,6.25
2023-03-07T15:44:42.940Z,6.50
2023-03-07T15:47:20.477Z,6.18
2023-03-07T15:49:57.763Z,7.22
2023-03-07T15:52:34.049Z,6.15
2023-03-07T15:55:09.813Z,6.75
2023-03-07T15:57:54.092Z,6.70
2023-03-07T16:00:35.831Z,6.75
2023-03-07T16:03:29.211Z,7.35
2023-03-07T16:06:07.875Z,6.88
2023-03-07T16:08:43.803Z,10.80
2023-03-07T16:11:19.438Z,7.10
2023-03-07T16:14:01.740Z,7.25
2023-03-07T16:16:38.014Z,6.90
2023-03-07T16:19:17.005Z,6.70
2023-03-07T16:21:57.630Z,7.00
2023-03-07T16:24:33.958Z,8.07
2023-03-07T16:27:09.897Z,8.43
2023-03-07T16:29:50.536Z,6.85
2023-03-07T16:32:27.981Z,7.93
2023-03-07T16:35:03.423Z,8.02
2023-03-07T16:37:43.614Z,7.07
2023-03-07T16:40:18.137Z,6.60
2023-03-07T16:42:55.332Z,6.90
2023-03-07T16:45:33.989Z,7.82
2023-03-07T16:48:11.982Z,6.60
2023-03-07T16:50:52.951Z,6.00
2023-03-07T16:53:27.044Z,6.53
2023-03-07T16:56:02.753Z,6.30
2023-03-07T16:58:38.015Z,6.20
2023-03-07T17:01:20.428Z,6.60
2023-03-07T17:03:58.745Z,7.30
2023-03-07T17:06:39.397Z,6.82
2023-03-07T17:09:15.553Z,7.45
2023-03-07T17:11:52.605Z,7.10
2023-03-07T17:14:29.155Z,7.50
2023-03-07T17:19:42.647Z,7.20
2023-03-07T17:22:20.249Z,7.60
2023-03-07T17:24:56.201Z,6.93
2023-03-07T17:27:37.403Z,7.78
2023-03-07T17:30:19.503Z,8.07
2023-03-07T17:33:02.916Z,8.07
2023-03-07T17:35:43.237Z,7.70
2023-03-07T17:38:20.476Z,7.60
2023-03-07T17:40:58.820Z,7.70
2023-03-07T17:43:34.175Z,8.02
2023-03-07T17:46:14.474Z,7.40
2023-03-07T17:48:53.840Z,7.13
2023-03-07T17:51:33.089Z,7.00
2023-03-07T17:54:08.481Z,7.82
2023-03-07T17:56:45.797Z,8.70
2023-03-07T17:59:21.508Z,7.60
2023-03-07T18:01:58.934Z,7.97
2023-03-07T18:04:38.591Z,7.60
2023-03-07T18:07:14.549Z,8.75
2023-03-07T18:12:43.813Z,8.00
2023-03-07T18:15:21.978Z,7.82
2023-03-07T18:18:00.136Z,7.35
2023-03-07T18:20:41.788Z,7.93
2023-03-07T18:23:16.052Z,7.25
2023-03-07T18:25:52.452Z,7.95
2023-03-07T18:28:36.524Z,7.70
2023-03-07T18:31:15.581Z,7.50
2023-03-07T18:33:54.862Z,7.77
2023-03-07T18:36:35.420Z,7.13
2023-03-07T18:39:18.418Z,7.07
2023-03-07T18:41:54.784Z,7.73
2023-03-07T18:44:31.732Z,7.47
2023-03-07T18:47:08.592Z,7.15
2023-03-07T18:49:48.954Z,7.47
2023-03-07T18:52:30.323Z,7.37
2023-03-07T18:55:07.634Z,7.25
2023-03-07T18:57:49.679Z,8.43
2023-03-07T19:00:32.985Z,8.25
2023-03-07T19:03:11.755Z,7.55
2023-03-07T19:05:50.591Z,7.82
2023-03-07T19:08:30.388Z,8.30
2023-03-07T19:11:07.861Z,8.20
2023-03-07T19:13:44.240Z,8.10
2023-03-07T19:16:23.059Z,7.95
2023-03-07T19:19:05.942Z,8.13
2023-03-07T19:21:44.584Z,7.35
2023-03-07T19:24:21.244Z,7.75
2023-03-07T19:27:05.582Z,8.83
2023-03-07T19:29:47.166Z,8.10
2023-03-07T19:32:29.043Z,7.55
2023-03-07T19:35:05.301Z,8.45
2023-03-07T19:37:43.000Z,8.70
2023-03-07T19:40:14.112Z,7.90
2023-03-07T19:42:54.935Z,8.35
2023-03-07T19:45:31.699Z,7.93
2023-03-07T19:48:08.493Z,7.15
2023-03-07T19:50:46.606Z,7.22
2023-03-07T19:53:23.167Z,7.97
2023-03-07T19:56:02.407Z,8.25
2023-03-07T19:58:43.558Z,8.23
2023-03-07T20:01:23.364Z,8.23
2023-03-07T20:04:00.767Z,8.27
2023-03-07T20:06:36.298Z,8.18
2023-03-07T20:09:14.318Z,7.50
2023-03-07T20:11:53.357Z,7.90
2023-03-07T20:14:47.486Z,7.85
2023-03-07T20:17:27.254Z,8.05
2023-03-07T20:20:09.403Z,8.25
2023-03-07T20:22:46.783Z,7.30
2023-03-07T20:25:25.216Z,8.55
2023-03-07T20:28:04.419Z,7.55
2023-03-07T20:30:42.040Z,8.50
2023-03-07T20:33:29.261Z,7.40
2023-03-07T20:36:07.574Z,8.07
2023-03-07T20:38:45.608Z,7.57
2023-03-07T20:41:24.316Z,8.55
2023-03-07T20:44:01.825Z,6.90
2023-03-07T20:46:40.303Z,7.80
2023-03-07T20:49:24.969Z,8.27
2023-03-07T20:52:08.971Z,9.40
2023-03-07T20:54:50.713Z,9.60
2023-03-07T20:57:28.244Z,10.02
2023-03-07T21:00:06.087Z,8.35
2023-03-07T21:02:48.358Z,7.97
2023-03-07T21:05:29.873Z,7.85
2023-03-07T21:08:11.759Z,6.78
2023-03-07T21:10:51.234Z,5.32
2023-03-07T21:13:33.823Z,5.70
2023-03-07T21:16:13.960Z,5.18
2023-03-07T21:19:01.917Z,5.00
2023-03-07T21:21:42.922Z,4.90
2023-03-07T21:24:20.982Z,5.00
2023-03-07T21:26:58.751Z,4.32
2023-03-07T21:29:37.110Z,4.90
2023-03-07T21:32:12.861Z,5.45
2023-03-07T21:34:49.203Z,4.85
2023-03-07T21:37:32.694Z,5.30
2023-03-07T21:40:04.670Z,4.47
2023-03-07T21:42:43.647Z,4.22
2023-03-07T21:45:25.449Z,3.67
2023-03-07T21:48:01.968Z,3.47
2023-03-07T21:50:40.979Z,3.45
2023-03-07T21:53:19.251Z,4.20
2023-03-07T21:55:54.781Z,4.00
2023-03-07T21:58:34.107Z,2.65
2023-03-07T22:01:14.323Z,3.58
2023-03-07T22:03:50.094Z,3.30
2023-03-07T22:06:27.679Z,2.88
2023-03-07T22:09:06.519Z,3.65
2023-03-07T22:11:41.873Z,3.42
2023-03-07T22:14:18.168Z,3.40
2023-03-07T22:16:55.379Z,3.50
2023-03-07T22:19:34.597Z,3.45
2023-03-07T22:22:11.140Z,3.85
2023-03-07T22:24:52.435Z,4.60
2023-03-07T22:27:29.389Z,4.90
2023-03-07T22:30:04.661Z,4.78
2023-03-07T22:32:44.051Z,5.37
2023-03-07T22:35:17.585Z,5.40
2023-03-07T22:37:54.703Z,5.40
2023-03-07T22:40:34.287Z,6.05
2023-03-07T22:43:11.842Z,7.38
2023-03-07T22:45:53.256Z,6.80
2023-03-07T22:48:30.795Z,7.47
2023-03-07T22:51:06.192Z,7.97
2023-03-07T22:53:42.221Z,8.50
2023-03-07T22:56:22.969Z,7.97
2023-03-07T22:59:01.236Z,8.02
2023-03-07T23:01:39.534Z,8.95
2023-03-07T23:04:16.739Z,9.23
2023-03-07T23:06:55.287Z,9.60
2023-03-07T23:09:31.116Z,9.27
2023-03-07T23:12:12.443Z,9.52
2023-03-07T23:14:52.750Z,9.20
2023-03-07T23:17:28.030Z,9.05
2023-03-07T23:20:05.726Z,9.38
2023-03-07T23:22:43.210Z,10.18
2023-03-07T23:25:18.661Z,9.65
2023-03-07T23:27:59.377Z,9.82
2023-03-07T23:30:41.923Z,9.02
2023-03-07T23:33:19.073Z,10.27
2023-03-07T23:35:54.684Z,9.10
2023-03-07T23:38:32.435Z,10.10
2023-03-07T23:41:06.776Z,9.60
2023-03-07T23:43:47.160Z,10.10
2023-03-07T23:46:29.384Z,9.95
2023-03-07T23:49:07.933Z,10.75
2023-03-07T23:51:44.995Z,10.18
2023-03-07T23:54:21.608Z,11.95
2023-03-07T23:56:58.687Z,10.95
2023-03-07T23:59:38.835Z,11.30
